createdAt,value
2018-08-27T00:01:00.869Z,100297.30
2018-08-27T00:02:07.074Z,100299.27
2018-08-27T00:03:13.540Z,100298.88
2018-08-27T00:04:19.435Z,100297.95
2018-08-27T00:05:25.688Z,100299.50
2018-08-27T00:06:32.966Z,100300.30
2018-08-27T00:07:39.338Z,100296.12
2018-08-27T00:08:45.489Z,100295.41
2018-08-27T00:09:51.419Z,100293.36
2018-08-27T00:10:57.797Z,100300.44
2018-08-27T00:12:04.096Z,100297.15
2018-08-27T00:13:10.427Z,100297.08
2018-08-27T00:14:16.692Z,100298.56
2018-08-27T00:15:23.011Z,100295.22
2018-08-27T00:16:29.340Z,100297.78
2018-08-27T00:17:35.915Z,100296.03
2018-08-27T00:18:42.286Z,100302.65
2018-08-27T00:19:49.137Z,100296.30
2018-08-27T00:20:55.732Z,100302.39
2018-08-27T00:22:02.041Z,100300.02
2018-08-27T00:23:08.376Z,100301.20
2018-08-27T00:24:14.692Z,100299.75
2018-08-27T00:25:20.979Z,100299.09
2018-08-27T00:26:27.392Z,100298.23
2018-08-27T00:27:33.376Z,100298.60
2018-08-27T00:28:39.944Z,100288.34
2018-08-27T00:29:46.196Z,100293.01
2018-08-27T00:30:52.553Z,100292.35
2018-08-27T00:31:58.845Z,100291.36
2018-08-27T00:33:04.779Z,100288.96
2018-08-27T00:34:11.167Z,100290.24
2018-08-27T00:35:17.455Z,100286.79
2018-08-27T00:36:23.705Z,100283.00
2018-08-27T00:37:29.788Z,100278.09
2018-08-27T00:38:36.678Z,100281.27
2018-08-27T00:39:42.576Z,100281.06
2018-08-27T00:40:49.048Z,100280.30
2018-08-27T00:41:55.344Z,100280.98
2018-08-27T00:43:01.779Z,100277.70
2018-08-27T00:44:08.058Z,100281.65
2018-08-27T00:45:14.384Z,100276.09
2018-08-27T00:46:20.710Z,100274.41
2018-08-27T00:47:27.296Z,100271.77
2018-08-27T00:48:33.623Z,100269.38
2018-08-27T00:49:40.052Z,100271.26
2018-08-27T00:50:46.328Z,100273.23
2018-08-27T00:51:52.867Z,100264.06
2018-08-27T00:52:59.168Z,100259.03
2018-08-27T00:54:05.474Z,100264.25
2018-08-27T00:55:11.672Z,100260.73
2018-08-27T00:56:18.050Z,100262.11
2018-08-27T00:57:25.084Z,100260.05
2018-08-27T00:58:31.339Z,100255.33
2018-08-27T00:59:37.660Z,100254.94
2018-08-27T01:00:43.872Z,100251.26
2018-08-27T01:01:54.094Z,100247.05
2018-08-27T01:03:00.508Z,100249.80
2018-08-27T01:04:06.464Z,100250.13
2018-08-27T01:05:12.909Z,100245.59
2018-08-27T01:06:19.219Z,100246.02
2018-08-27T01:07:25.510Z,100245.73
2018-08-27T01:08:31.828Z,100244.00
2018-08-27T01:09:37.973Z,100242.71
2018-08-27T01:10:44.075Z,100239.79
2018-08-27T01:11:50.388Z,100239.16
2018-08-27T01:12:56.467Z,100243.60
2018-08-27T01:14:02.930Z,100242.19
2018-08-27T01:15:09.878Z,100235.50
2018-08-27T01:16:15.791Z,100240.36
2018-08-27T01:17:22.153Z,100233.89
2018-08-27T01:18:28.428Z,100234.89
2018-08-27T01:19:34.747Z,100234.44
2018-08-27T01:20:41.059Z,100227.53
2018-08-27T01:21:47.323Z,100233.26
2018-08-27T01:22:53.571Z,100232.02
2018-08-27T01:24:00.070Z,100238.83
2018-08-27T01:25:05.711Z,100235.05
2018-08-27T01:26:11.988Z,100229.70
2018-08-27T01:27:18.221Z,100226.97
2018-08-27T01:28:24.371Z,100229.84
2018-08-27T01:29:30.253Z,100231.79
2018-08-27T01:30:36.340Z,100234.89
2018-08-27T01:31:42.329Z,100233.83
2018-08-27T01:32:48.813Z,100235.32
2018-08-27T01:33:56.247Z,100239.23
2018-08-27T01:35:02.088Z,100234.40
2018-08-27T01:36:08.337Z,100242.62
2018-08-27T01:37:15.374Z,100237.98
2018-08-27T01:38:21.679Z,100234.98
2018-08-27T01:39:27.998Z,100236.55
2018-08-27T01:40:34.270Z,100231.61
2018-08-27T01:41:40.615Z,100229.41
2018-08-27T01:42:46.952Z,100237.33
2018-08-27T01:43:53.624Z,100232.80
2018-08-27T01:45:00.079Z,100230.87
2018-08-27T01:46:06.335Z,100233.20
2018-08-27T01:47:12.656Z,100238.09
2018-08-27T01:48:19.008Z,100236.73
2018-08-27T01:49:25.328Z,100231.30
2018-08-27T01:50:31.740Z,100229.25
2018-08-27T01:51:38.095Z,100239.36
2018-08-27T01:52:45.216Z,100238.26
2018-08-27T01:53:51.465Z,100226.77
2018-08-27T01:54:57.791Z,100236.24
2018-08-27T01:56:03.839Z,100233.59
2018-08-27T01:57:10.137Z,100236.58
2018-08-27T01:58:16.714Z,100233.92
2018-08-27T01:59:23.149Z,100236.67
2018-08-27T02:00:29.404Z,100239.97
2018-08-27T02:01:35.880Z,100232.47
2018-08-27T02:02:42.195Z,100233.93
2018-08-27T02:03:48.178Z,100232.19
2018-08-27T02:04:54.150Z,100234.72
2018-08-27T02:06:00.444Z,100233.05
2018-08-27T02:07:06.416Z,100236.44
2018-08-27T02:08:12.764Z,100228.19
2018-08-27T02:09:19.147Z,100226.63
2018-08-27T02:10:25.411Z,100224.55
2018-08-27T02:11:32.888Z,100226.02
2018-08-27T02:12:39.211Z,100225.86
2018-08-27T02:13:45.311Z,100222.08
2018-08-27T02:14:51.724Z,100224.95
2018-08-27T02:15:57.993Z,100223.52
2018-08-27T02:17:03.940Z,100218.72
2018-08-27T02:18:10.313Z,100221.84
2018-08-27T02:19:18.541Z,100222.20
2018-08-27T02:20:25.952Z,100217.93
2018-08-27T02:21:32.306Z,100219.15
2018-08-27T02:22:38.669Z,100223.36
2018-08-27T02:23:44.975Z,100219.91
2018-08-27T02:24:51.194Z,100215.15
2018-08-27T02:25:57.450Z,100216.80
2018-08-27T02:27:03.604Z,100212.89
2018-08-27T02:28:09.868Z,100217.29
2018-08-27T02:29:16.655Z,100215.27
2018-08-27T02:30:23.048Z,100215.03
2018-08-27T02:31:28.637Z,100212.12
2018-08-27T02:32:35.015Z,100207.67
2018-08-27T02:33:41.057Z,100208.41
2018-08-27T02:34:47.475Z,100203.30
2018-08-27T02:35:53.708Z,100198.95
2018-08-27T02:37:04.807Z,100196.19
2018-08-27T02:38:11.338Z,100190.23
2018-08-27T02:39:17.604Z,100191.86
2018-08-27T02:40:23.415Z,100189.80
2018-08-27T02:41:29.471Z,100188.11
2018-08-27T02:42:44.265Z,100191.08
2018-08-27T02:43:50.897Z,100187.69
2018-08-27T02:44:57.148Z,100187.13
2018-08-27T02:46:03.500Z,100184.97
2018-08-27T02:47:13.500Z,100188.44
2018-08-27T02:48:19.752Z,100186.47
2018-08-27T02:49:26.098Z,100191.02
2018-08-27T02:50:31.775Z,100188.91
2018-08-27T02:51:38.105Z,100195.02
2018-08-27T02:52:44.680Z,100189.59
2018-08-27T02:53:50.786Z,100194.10
2018-08-27T02:54:57.224Z,100192.79
2018-08-27T02:56:03.583Z,100191.91
2018-08-27T02:57:09.897Z,100189.77
2018-08-27T02:58:15.929Z,100191.52
2018-08-27T02:59:22.275Z,100193.83
2018-08-27T03:00:28.277Z,100186.29
2018-08-27T03:01:34.634Z,100193.33
2018-08-27T03:02:41.200Z,100186.46
2018-08-27T03:03:47.659Z,100184.30
2018-08-27T03:04:53.965Z,100183.86
2018-08-27T03:06:00.299Z,100177.72
2018-08-27T03:07:06.559Z,100171.59
2018-08-27T03:08:12.640Z,100171.17
2018-08-27T03:09:18.969Z,100172.98
2018-08-27T03:10:26.677Z,100166.91
2018-08-27T03:11:32.968Z,100172.59
2018-08-27T03:12:39.533Z,100171.93
2018-08-27T03:13:45.877Z,100162.63
2018-08-27T03:14:52.180Z,100163.78
2018-08-27T03:15:58.553Z,100161.58
2018-08-27T03:17:05.408Z,100158.05
2018-08-27T03:18:11.775Z,100159.48
2018-08-27T03:19:18.801Z,100158.59
2018-08-27T03:20:24.698Z,100153.30
2018-08-27T03:21:30.996Z,100151.52
2018-08-27T03:22:37.319Z,100153.78
2018-08-27T03:23:43.589Z,100153.52
2018-08-27T03:24:49.968Z,100154.89
2018-08-27T03:25:56.099Z,100156.20
2018-08-27T03:27:02.561Z,100155.48
2018-08-27T03:28:08.908Z,100156.06
2018-08-27T03:29:15.147Z,100157.05
2018-08-27T03:30:21.515Z,100161.88
2018-08-27T03:31:27.847Z,100163.06
2018-08-27T03:32:33.998Z,100154.02
2018-08-27T03:33:40.328Z,100157.55
2018-08-27T03:34:46.608Z,100151.38
2018-08-27T03:35:52.976Z,100157.03
2018-08-27T03:36:59.627Z,100155.23
2018-08-27T03:38:05.727Z,100159.64
2018-08-27T03:39:11.794Z,100154.23
2018-08-27T03:40:18.170Z,100158.27
2018-08-27T03:41:24.497Z,100158.64
2018-08-27T03:42:30.848Z,100155.58
2018-08-27T03:43:37.107Z,100155.09
2018-08-27T03:44:43.682Z,100154.52
2018-08-27T03:45:50.285Z,100148.13
2018-08-27T03:46:56.626Z,100150.26
2018-08-27T03:48:03.001Z,100151.98
2018-08-27T03:49:09.280Z,100150.38
2018-08-27T03:50:15.616Z,100148.17
2018-08-27T03:51:21.900Z,100145.20
2018-08-27T03:52:28.245Z,100145.58
2018-08-27T03:53:34.518Z,100145.53
2018-08-27T03:54:40.843Z,100147.95
2018-08-27T03:55:47.393Z,100146.49
2018-08-27T03:56:53.814Z,100145.61
2018-08-27T03:58:00.134Z,100148.39
2018-08-27T03:59:05.712Z,100155.69
2018-08-27T04:00:12.096Z,100153.03
2018-08-27T04:01:18.404Z,100160.28
2018-08-27T04:02:24.768Z,100160.56
2018-08-27T04:03:31.016Z,100149.24
2018-08-27T04:04:37.580Z,100154.51
2018-08-27T04:05:44.919Z,100159.27
2018-08-27T04:06:51.180Z,100156.69
2018-08-27T04:07:57.539Z,100156.59
2018-08-27T04:09:03.276Z,100156.20
2018-08-27T04:10:09.615Z,100154.42
2018-08-27T04:11:15.919Z,100152.84
2018-08-27T04:12:23.092Z,100151.41
2018-08-27T04:13:29.669Z,100152.48
2018-08-27T04:14:36.081Z,100147.55
2018-08-27T04:15:42.288Z,100153.84
2018-08-27T04:16:48.715Z,100152.17
2018-08-27T04:17:55.068Z,100154.17
2018-08-27T04:19:01.345Z,100149.97
2018-08-27T04:20:07.708Z,100152.01
2018-08-27T04:21:13.716Z,100153.16
2018-08-27T04:23:24.819Z,100156.06
2018-08-27T04:24:31.194Z,100154.43
2018-08-27T04:25:37.417Z,100157.19
2018-08-27T04:26:43.821Z,100157.42
2018-08-27T04:27:50.248Z,100149.92
2018-08-27T04:28:56.822Z,100153.80
2018-08-27T04:30:03.834Z,100149.92
2018-08-27T04:31:10.163Z,100147.96
2018-08-27T04:32:16.596Z,100151.12
2018-08-27T04:33:22.911Z,100152.83
2018-08-27T04:34:29.229Z,100148.25
2018-08-27T04:35:35.501Z,100141.03
2018-08-27T04:36:41.922Z,100143.33
2018-08-27T04:37:48.433Z,100144.97
2018-08-27T04:38:54.784Z,100142.84
2018-08-27T04:40:01.058Z,100146.05
2018-08-27T04:41:06.690Z,100145.75
2018-08-27T04:42:13.005Z,100140.25
2018-08-27T04:43:19.273Z,100137.37
2018-08-27T04:44:25.631Z,100141.30
2018-08-27T04:45:31.917Z,100140.31
2018-08-27T04:46:38.273Z,100139.03
2018-08-27T04:47:44.545Z,100137.66
2018-08-27T04:48:50.873Z,100135.78
2018-08-27T04:49:57.179Z,100139.91
2018-08-27T04:51:03.732Z,100131.42
2018-08-27T04:52:09.984Z,100134.56
2018-08-27T04:53:16.434Z,100136.56
2018-08-27T04:54:22.743Z,100133.94
2018-08-27T04:55:29.052Z,100134.92
2018-08-27T04:56:35.329Z,100136.07
2018-08-27T04:57:41.694Z,100137.67
2018-08-27T04:58:47.721Z,100135.09
2018-08-27T04:59:53.967Z,100141.97
2018-08-27T05:01:00.344Z,100137.20
2018-08-27T05:02:06.856Z,100141.55
2018-08-27T05:03:13.187Z,100140.59
2018-08-27T05:04:19.589Z,100136.32
2018-08-27T05:05:25.818Z,100138.28
2018-08-27T05:06:32.616Z,100130.56
2018-08-27T05:07:38.867Z,100134.52
2018-08-27T05:08:45.205Z,100130.17
2018-08-27T05:09:51.611Z,100128.86
2018-08-27T05:10:58.104Z,100124.44
2018-08-27T05:12:04.459Z,100125.72
2018-08-27T05:13:11.173Z,100127.47
2018-08-27T05:14:19.855Z,100126.00
2018-08-27T05:15:26.900Z,100133.03
2018-08-27T05:16:33.152Z,100129.34
2018-08-27T05:17:39.583Z,100129.27
2018-08-27T05:18:45.860Z,100126.48
2018-08-27T05:19:52.212Z,100125.48
2018-08-27T05:20:58.595Z,100125.03
2018-08-27T05:22:04.564Z,100118.26
2018-08-27T05:23:10.938Z,100122.97
2018-08-27T05:24:17.275Z,100126.27
2018-08-27T05:25:23.528Z,100123.06
2018-08-27T05:26:29.604Z,100116.29
2018-08-27T05:27:35.959Z,100119.00
2018-08-27T05:28:42.321Z,100121.46
2018-08-27T05:29:48.574Z,100114.78
2018-08-27T05:30:54.812Z,100114.53
2018-08-27T05:32:02.021Z,100107.03
2018-08-27T05:33:08.268Z,100109.11
2018-08-27T05:34:14.547Z,100104.14
2018-08-27T05:35:20.882Z,100099.78
2018-08-27T05:36:27.168Z,100102.05
2018-08-27T05:37:33.472Z,100101.81
2018-08-27T05:38:39.961Z,100093.52
2018-08-27T05:39:47.118Z,100092.39
2018-08-27T05:40:53.336Z,100090.95
2018-08-27T05:41:59.653Z,100082.11
2018-08-27T05:43:06.165Z,100075.70
2018-08-27T05:44:12.532Z,100077.69
2018-08-27T05:45:18.775Z,100079.98
2018-08-27T05:46:25.029Z,100077.06
2018-08-27T05:47:31.340Z,100079.70
2018-08-27T05:48:37.759Z,100089.23
2018-08-27T05:49:44.028Z,100082.48
2018-08-27T05:50:50.349Z,100085.06
2018-08-27T05:51:56.661Z,100081.65
2018-08-27T05:53:03.204Z,100082.05
2018-08-27T05:54:10.064Z,100082.84
2018-08-27T05:55:16.348Z,100080.89
2018-08-27T05:56:22.767Z,100077.41
2018-08-27T05:57:28.864Z,100074.65
2018-08-27T05:58:35.284Z,100077.94
2018-08-27T05:59:41.568Z,100069.86
2018-08-27T06:00:47.871Z,100076.54
2018-08-27T06:01:54.279Z,100067.61
2018-08-27T06:03:01.433Z,100070.11
2018-08-27T06:04:07.880Z,100072.09
2018-08-27T06:05:14.382Z,100066.61
2018-08-27T06:06:20.661Z,100057.45
2018-08-27T06:07:27.008Z,100059.49
2018-08-27T06:08:33.312Z,100054.02
2018-08-27T06:09:40.270Z,100060.40
2018-08-27T06:10:46.600Z,100053.80
2018-08-27T06:11:52.934Z,100059.81
2018-08-27T06:12:59.168Z,100053.32
2018-08-27T06:14:05.489Z,100050.44
2018-08-27T06:15:11.691Z,100055.73
2018-08-27T06:16:18.247Z,100051.02
2018-08-27T06:17:24.795Z,100051.34
2018-08-27T06:18:31.176Z,100054.78
2018-08-27T06:19:37.069Z,100054.11
2018-08-27T06:20:43.324Z,100057.12
2018-08-27T06:21:50.333Z,100048.42
2018-08-27T06:22:57.014Z,100047.75
2018-08-27T06:24:03.424Z,100050.22
2018-08-27T06:25:09.762Z,100047.00
2018-08-27T06:26:16.347Z,100046.95
2018-08-27T06:27:22.584Z,100050.87
2018-08-27T06:28:28.874Z,100052.33
2018-08-27T06:29:35.185Z,100053.42
2018-08-27T06:30:41.529Z,100049.59
2018-08-27T06:31:47.794Z,100048.27
2018-08-27T06:32:54.237Z,100040.77
2018-08-27T06:34:00.540Z,100048.13
2018-08-27T06:35:06.192Z,100043.95
2018-08-27T06:36:12.836Z,100049.78
2018-08-27T06:37:19.143Z,100043.69
2018-08-27T06:38:25.432Z,100041.32
2018-08-27T06:39:31.681Z,100038.43
2018-08-27T06:40:37.977Z,100026.75
2018-08-27T06:41:44.327Z,100033.00
2018-08-27T06:42:50.724Z,100034.75
2018-08-27T06:43:57.040Z,100031.97
2018-08-27T06:45:02.954Z,100035.05
2018-08-27T06:46:09.386Z,100034.08
2018-08-27T06:47:15.840Z,100031.70
2018-08-27T06:48:22.080Z,100034.19
2018-08-27T06:49:28.392Z,100027.05
2018-08-27T06:50:34.839Z,100031.50
2018-08-27T06:51:41.372Z,100033.44
2018-08-27T06:52:47.743Z,100038.74
2018-08-27T06:53:54.728Z,100038.66
2018-08-27T06:55:01.088Z,100037.83
2018-08-27T06:56:07.023Z,100036.64
2018-08-27T06:57:13.532Z,100037.16
2018-08-27T06:58:20.723Z,100039.04
2018-08-27T06:59:27.174Z,100036.83
2018-08-27T07:00:33.437Z,100035.54
2018-08-27T07:01:39.781Z,100037.52
2018-08-27T07:02:46.159Z,100041.62
2018-08-27T07:03:52.484Z,100042.17
2018-08-27T07:04:58.820Z,100044.95
2018-08-27T07:06:04.724Z,100041.20
2018-08-27T07:07:10.999Z,100039.34
2018-08-27T07:08:17.299Z,100035.54
2018-08-27T07:09:23.892Z,100035.61
2018-08-27T07:10:29.812Z,100036.06
2018-08-27T07:11:35.897Z,100036.16
2018-08-27T07:12:42.472Z,100037.09
2018-08-27T07:13:48.910Z,100030.56
2018-08-27T07:14:55.322Z,100032.65
2018-08-27T07:16:01.581Z,100034.49
2018-08-27T07:17:07.939Z,100035.71
2018-08-27T07:18:14.371Z,100043.80
2018-08-27T07:19:20.671Z,100031.99
2018-08-27T07:20:26.696Z,100039.98
2018-08-27T07:21:32.604Z,100043.87
2018-08-27T07:22:38.843Z,100041.33
2018-08-27T07:23:45.099Z,100039.34
2018-08-27T07:24:51.391Z,100042.94
2018-08-27T07:25:57.748Z,100036.08
2018-08-27T07:27:04.054Z,100029.47
2018-08-27T07:28:10.695Z,100028.81
2018-08-27T07:29:17.775Z,100028.34
2018-08-27T07:30:24.092Z,100028.56
2018-08-27T07:31:30.371Z,100022.94
2018-08-27T07:32:36.647Z,100028.59
2018-08-27T07:33:42.900Z,100026.86
2018-08-27T07:34:49.235Z,100025.91
2018-08-27T07:35:55.547Z,100025.33
2018-08-27T07:37:01.945Z,100023.19
2018-08-27T07:38:08.248Z,100027.45
2018-08-27T07:39:14.560Z,100029.09
2018-08-27T07:40:21.635Z,100026.27
2018-08-27T07:41:27.597Z,100026.19
2018-08-27T07:42:33.907Z,100022.72
2018-08-27T07:43:40.325Z,100034.11
2018-08-27T07:44:46.866Z,100033.94
2018-08-27T07:45:53.724Z,100033.64
2018-08-27T07:47:00.081Z,100029.70
2018-08-27T07:48:06.193Z,100024.55
2018-08-27T07:49:12.484Z,100036.77
2018-08-27T07:50:18.292Z,100028.23
2018-08-27T07:51:24.361Z,100034.22
2018-08-27T07:52:30.508Z,100039.24
2018-08-27T07:53:36.548Z,100036.02
2018-08-27T07:54:42.955Z,100036.09
2018-08-27T07:55:49.241Z,100030.36
2018-08-27T07:56:55.571Z,100028.57
2018-08-27T07:58:01.896Z,100032.41
2018-08-27T07:59:08.563Z,100037.26
2018-08-27T08:00:14.712Z,100043.81
2018-08-27T08:01:21.163Z,100035.36
2018-08-27T08:02:27.073Z,100042.11
2018-08-27T08:03:33.122Z,100037.37
2018-08-27T08:04:39.033Z,100039.23
2018-08-27T08:05:45.565Z,100041.16
2018-08-27T08:06:51.870Z,100045.91
2018-08-27T08:07:58.635Z,100038.66
2018-08-27T08:09:04.072Z,100038.98
2018-08-27T08:10:10.184Z,100041.95
2018-08-27T08:11:17.125Z,100046.21
2018-08-27T08:12:23.403Z,100037.70
2018-08-27T08:13:29.034Z,100043.08
2018-08-27T08:14:35.418Z,100046.48
2018-08-27T08:15:41.986Z,100045.36
2018-08-27T08:16:48.143Z,100045.20
2018-08-27T08:17:54.449Z,100048.97
2018-08-27T08:19:00.457Z,100048.93
2018-08-27T08:20:06.907Z,100046.85
2018-08-27T08:21:13.297Z,100043.13
2018-08-27T08:22:19.420Z,100041.41
2018-08-27T08:23:26.256Z,100039.09
2018-08-27T08:24:32.448Z,100049.94
2018-08-27T08:25:38.528Z,100039.30
2018-08-27T08:26:44.749Z,100044.52
2018-08-27T08:27:50.705Z,100044.30
2018-08-27T08:28:56.540Z,100049.15
2018-08-27T08:30:02.873Z,100045.09
2018-08-27T08:31:08.481Z,100041.27
2018-08-27T08:32:14.809Z,100035.69
2018-08-27T08:33:21.189Z,100030.53
2018-08-27T08:34:27.273Z,100032.12
2018-08-27T08:35:33.674Z,100021.94
2018-08-27T08:36:39.939Z,100026.53
2018-08-27T08:37:46.232Z,100023.27
2018-08-27T08:38:52.471Z,100028.19
2018-08-27T08:39:59.028Z,100027.73
2018-08-27T08:41:05.501Z,100033.36
2018-08-27T08:42:12.149Z,100029.11
2018-08-27T08:43:18.381Z,100030.32
2018-08-27T08:44:24.771Z,100026.06
2018-08-27T08:45:31.062Z,100029.70
2018-08-27T08:46:37.337Z,100042.03
2018-08-27T08:47:43.654Z,100038.16
2018-08-27T08:48:50.579Z,100037.12
2018-08-27T08:49:56.971Z,100034.80
2018-08-27T08:51:03.280Z,100033.37
2018-08-27T08:52:09.528Z,100042.03
2018-08-27T08:53:15.843Z,100031.83
2018-08-27T08:54:22.132Z,100035.34
2018-08-27T08:55:28.488Z,100038.07
2018-08-27T08:56:34.772Z,100036.07
2018-08-27T08:57:41.130Z,100042.06
2018-08-27T08:58:47.391Z,100035.16
2018-08-27T08:59:53.857Z,100044.48
2018-08-27T09:01:00.270Z,100037.13
2018-08-27T09:02:06.540Z,100031.44
2018-08-27T09:03:12.940Z,100041.96
2018-08-27T09:04:19.144Z,100040.27
2018-08-27T09:05:25.393Z,100041.00
2018-08-27T09:06:31.709Z,100036.42
2018-08-27T09:07:37.980Z,100038.58
2018-08-27T09:08:44.096Z,100037.70
2018-08-27T09:09:50.564Z,100035.56
2018-08-27T09:10:56.944Z,100031.62
2018-08-27T09:12:03.230Z,100027.27
2018-08-27T09:13:09.542Z,100033.47
2018-08-27T09:14:15.935Z,100030.44
2018-08-27T09:15:22.203Z,100027.84
2018-08-27T09:16:28.137Z,100032.02
2018-08-27T09:17:34.543Z,100029.17
2018-08-27T09:18:41.674Z,100033.34
2018-08-27T09:19:47.868Z,100032.50
2018-08-27T09:20:54.167Z,100025.51
2018-08-27T09:22:00.143Z,100033.86
2018-08-27T09:23:06.465Z,100033.59
2018-08-27T09:24:12.805Z,100028.62
2018-08-27T09:25:19.085Z,100034.56
2018-08-27T09:26:31.068Z,100034.34
2018-08-27T09:27:37.361Z,100034.73
2018-08-27T09:28:43.683Z,100036.73
2018-08-27T09:29:49.955Z,100030.41
2018-08-27T09:30:56.292Z,100036.13
2018-08-27T09:32:02.629Z,100035.98
2018-08-27T09:33:09.115Z,100027.26
2018-08-27T09:34:15.546Z,100035.38
2018-08-27T09:35:21.826Z,100032.20
2018-08-27T09:36:28.187Z,100028.98
2018-08-27T09:37:34.180Z,100027.23
2018-08-27T09:38:40.557Z,100035.98
2018-08-27T09:39:46.873Z,100029.95
2018-08-27T09:40:53.124Z,100021.18
2018-08-27T09:41:59.900Z,100026.11
2018-08-27T09:43:06.192Z,100022.56
2018-08-27T09:44:12.376Z,100021.86
2018-08-27T09:45:18.773Z,100023.83
2018-08-27T09:46:25.077Z,100018.27
2018-08-27T09:47:31.351Z,100020.13
2018-08-27T09:48:37.337Z,100018.45
2018-08-27T09:49:43.585Z,100020.73
2018-08-27T09:50:49.892Z,100016.01
2018-08-27T09:51:56.111Z,100029.81
2018-08-27T09:53:02.622Z,100023.13
2018-08-27T09:54:08.971Z,100011.78
2018-08-27T09:55:15.243Z,100016.00
2018-08-27T09:56:21.584Z,100018.59
2018-08-27T09:57:27.833Z,100023.23
2018-08-27T09:58:34.093Z,100013.70
2018-08-27T09:59:40.680Z,100015.88
2018-08-27T10:00:46.753Z,100007.86
2018-08-27T10:01:52.910Z,100010.75
2018-08-27T10:02:59.320Z,100010.27
2018-08-27T10:04:05.968Z,100015.45
2018-08-27T10:05:12.404Z,100018.12
2018-08-27T10:06:18.683Z,100007.16
2018-08-27T10:07:25.007Z,100015.19
2018-08-27T10:08:31.286Z,100011.88
2018-08-27T10:09:37.600Z,100003.16
2018-08-27T10:10:43.914Z,100013.73
2018-08-27T10:11:50.255Z,99997.97
2018-08-27T10:12:56.844Z,100020.34
2018-08-27T10:14:03.225Z,100016.43
2018-08-27T10:15:09.113Z,100005.52
2018-08-27T10:16:15.522Z,99994.48
2018-08-27T10:17:21.784Z,99997.28
2018-08-27T10:18:28.102Z,100002.55
2018-08-27T10:19:34.407Z,100008.16
2018-08-27T10:20:40.479Z,99995.08
2018-08-27T10:21:47.064Z,99993.55
2018-08-27T10:22:53.908Z,99989.87
2018-08-27T10:24:00.197Z,99992.11
2018-08-27T10:25:06.111Z,99988.94
2018-08-27T10:26:12.520Z,99984.24
2018-08-27T10:27:19.127Z,99987.34
2018-08-27T10:28:25.420Z,99989.31
2018-08-27T10:29:31.291Z,99992.23
2018-08-27T10:30:37.944Z,99987.19
2018-08-27T10:31:44.376Z,99986.04
2018-08-27T10:32:50.663Z,99990.66
2018-08-27T10:33:56.741Z,99980.00
2018-08-27T10:35:02.960Z,99984.31
2018-08-27T10:36:09.175Z,99969.66
2018-08-27T10:37:15.517Z,99982.73
2018-08-27T10:38:21.915Z,99980.55
2018-08-27T10:39:28.311Z,99988.98
2018-08-27T10:40:34.431Z,99988.33
2018-08-27T10:41:40.375Z,99976.90
2018-08-27T10:42:46.336Z,99968.48
2018-08-27T10:43:52.553Z,99976.52
2018-08-27T10:44:59.074Z,99981.97
2018-08-27T10:46:04.856Z,99970.00
2018-08-27T10:47:11.117Z,99972.14
2018-08-27T10:48:17.531Z,99972.93
2018-08-27T10:49:24.280Z,99989.76
2018-08-27T10:50:30.554Z,99971.79
2018-08-27T10:51:37.196Z,99976.62
2018-08-27T10:52:43.494Z,99974.50
2018-08-27T10:53:50.660Z,99978.59
2018-08-27T10:54:57.457Z,99995.14
2018-08-27T10:56:03.768Z,99988.59
2018-08-27T10:57:09.869Z,99981.55
2018-08-27T10:58:16.243Z,99975.34
2018-08-27T10:59:22.666Z,99982.89
2018-08-27T11:00:28.989Z,99982.39
2018-08-27T11:01:35.348Z,99993.24
2018-08-27T11:02:41.545Z,99986.19
2018-08-27T11:03:47.837Z,99987.13
2018-08-27T11:04:54.292Z,99982.70
2018-08-27T11:06:00.561Z,99979.64
2018-08-27T11:07:06.272Z,99975.98
2018-08-27T11:08:12.241Z,99967.92
2018-08-27T11:09:18.554Z,99983.03
2018-08-27T11:10:24.870Z,99988.70
2018-08-27T11:11:31.176Z,99975.21
2018-08-27T11:12:37.654Z,99982.67
2018-08-27T11:13:44.005Z,99989.68
2018-08-27T11:14:51.296Z,99989.69
2018-08-27T11:15:57.258Z,99988.20
2018-08-27T11:17:03.512Z,99984.92
2018-08-27T11:18:09.777Z,99997.56
2018-08-27T11:19:16.088Z,99988.58
2018-08-27T11:20:22.202Z,99984.61
2018-08-27T11:21:29.133Z,99981.30
2018-08-27T11:22:35.125Z,99982.36
2018-08-27T11:23:41.608Z,99983.88
2018-08-27T11:24:47.880Z,99988.09
2018-08-27T11:25:54.159Z,99991.06
2018-08-27T11:27:00.389Z,99986.26
2018-08-27T11:28:06.695Z,99980.03
2018-08-27T11:29:12.987Z,99980.03
2018-08-27T11:30:19.319Z,99990.31
2018-08-27T11:31:27.577Z,99986.58
2018-08-27T11:32:33.896Z,99991.26
2018-08-27T11:33:40.603Z,99988.77
2018-08-27T11:34:46.956Z,99983.05
2018-08-27T11:35:53.858Z,99989.11
2018-08-27T11:37:00.179Z,99992.15
2018-08-27T11:38:05.815Z,99985.92
2018-08-27T11:39:11.412Z,99976.66
2018-08-27T11:40:17.843Z,99986.05
2018-08-27T11:41:24.170Z,99982.30
2018-08-27T11:42:30.534Z,99978.78
2018-08-27T11:43:37.623Z,99982.53
2018-08-27T11:44:43.664Z,99987.89
2018-08-27T11:45:49.968Z,100000.61
2018-08-27T11:46:56.228Z,99992.92
2018-08-27T11:48:02.581Z,99986.41
2018-08-27T11:49:08.535Z,99988.90
2018-08-27T11:50:14.806Z,99983.38
2018-08-27T11:51:21.290Z,99981.38
2018-08-27T11:52:27.633Z,99986.53
2018-08-27T11:53:35.715Z,99983.88
2018-08-27T11:54:41.911Z,99988.58
2018-08-27T11:55:48.160Z,99993.39
2018-08-27T11:56:54.378Z,99998.59
2018-08-27T11:58:00.718Z,99991.98
2018-08-27T11:59:07.004Z,99996.09
2018-08-27T12:00:13.076Z,100003.87
2018-08-27T12:01:19.099Z,99995.51
2018-08-27T12:02:25.973Z,99990.41
2018-08-27T12:03:32.281Z,99998.24
2018-08-27T12:04:38.325Z,99997.75
2018-08-27T12:05:44.699Z,99993.41
2018-08-27T12:06:50.981Z,99999.70
2018-08-27T12:07:57.327Z,100001.02
2018-08-27T12:09:03.194Z,100013.37
2018-08-27T12:10:09.127Z,100004.55
2018-08-27T12:11:15.507Z,100010.27
2018-08-27T12:12:22.395Z,100009.27
2018-08-27T12:13:28.705Z,100013.33
2018-08-27T12:14:34.939Z,100014.09
2018-08-27T12:15:41.262Z,100013.56
2018-08-27T12:16:48.727Z,100015.30
2018-08-27T12:17:55.540Z,100022.22
2018-08-27T12:19:01.856Z,100016.40
2018-08-27T12:20:07.497Z,100014.95
2018-08-27T12:21:13.813Z,100010.38
2018-08-27T12:22:21.080Z,100007.12
2018-08-27T12:23:27.438Z,100007.56
2018-08-27T12:24:33.750Z,100007.38
2018-08-27T12:25:39.820Z,100005.98
2018-08-27T12:26:46.148Z,100005.07
2018-08-27T12:27:52.515Z,100005.13
2018-08-27T12:28:58.760Z,100001.51
2018-08-27T12:30:04.492Z,100004.39
2018-08-27T12:31:11.244Z,99998.39
2018-08-27T12:32:17.619Z,99990.41
2018-08-27T12:33:23.937Z,99996.53
2018-08-27T12:34:30.217Z,100001.05
2018-08-27T12:35:36.836Z,99992.81
2018-08-27T12:36:43.624Z,100000.76
2018-08-27T12:37:49.927Z,100007.23
2018-08-27T12:38:56.519Z,99994.88
2018-08-27T12:40:02.865Z,99995.19
2018-08-27T12:41:09.579Z,100007.81
2018-08-27T12:42:16.042Z,100008.50